createdAt,value
2023-01-02T00:01:17.183Z,100083.44
2023-01-02T00:05:18.904Z,100080.50
2023-01-02T00:09:20.742Z,100081.47
2023-01-02T00:13:22.494Z,100070.47
2023-01-02T00:17:24.326Z,100074.91
2023-01-02T00:21:26.091Z,100067.03
2023-01-02T00:25:28.043Z,100070.16
2023-01-02T00:29:29.807Z,100063.25
2023-01-02T00:33:31.664Z,100053.53
2023-01-02T00:37:33.554Z,100045.03
2023-01-02T00:41:35.346Z,100043.19
2023-01-02T00:45:37.100Z,100046.97
2023-01-02T00:49:38.901Z,100032.19
2023-01-02T00:53:40.623Z,100025.34
2023-01-02T00:57:42.415Z,100033.53
2023-01-02T01:01:44.295Z,100033.00
2023-01-02T01:05:46.267Z,100026.78
2023-01-02T01:09:48.014Z,100029.91
2023-01-02T01:13:49.740Z,100023.66
2023-01-02T01:17:51.473Z,100025.31
2023-01-02T01:21:53.314Z,100018.41
2023-01-02T01:25:55.040Z,100014.28
2023-01-02T01:29:56.784Z,100014.47
2023-01-02T01:33:58.556Z,100014.13
2023-01-02T01:38:00.311Z,100003.16
2023-01-02T01:42:02.304Z,100001.63
2023-01-02T01:46:06.208Z,99997.69
2023-01-02T01:50:19.542Z,99997.88
2023-01-02T01:54:25.514Z,99995.66
2023-01-02T01:58:31.694Z,100000.28
2023-01-02T02:02:33.790Z,99986.41
2023-01-02T02:06:35.945Z,100002.91
2023-01-02T02:10:38.364Z,99987.38
2023-01-02T02:14:40.146Z,99978.94
2023-01-02T02:18:45.925Z,99987.34
2023-01-02T02:23:21.499Z,99996.03
2023-01-02T02:27:40.947Z,99983.28
2023-01-02T02:32:02.400Z,99994.72
2023-01-02T02:36:34.837Z,99979.41
2023-01-02T02:41:08.036Z,99993.97
2023-01-02T02:45:25.916Z,99984.53
2023-01-02T02:49:56.426Z,99981.72
2023-01-02T02:54:11.868Z,99975.47
2023-01-02T02:58:13.913Z,99974.28
2023-01-02T03:02:16.923Z,99971.69
2023-01-02T03:06:25.505Z,99966.63
2023-01-02T03:10:53.492Z,99958.44
2023-01-02T03:15:12.485Z,99955.97
2023-01-02T03:19:59.568Z,99963.50
2023-01-02T03:24:12.496Z,99968.41
2023-01-02T03:28:17.448Z,99962.41
2023-01-02T03:32:32.377Z,99951.41
2023-01-02T03:36:34.218Z,99954.22
2023-01-02T03:40:40.473Z,99932.69
2023-01-02T03:45:01.935Z,99922.69
2023-01-02T03:49:16.020Z,99904.41
2023-01-02T03:53:17.780Z,99900.59
2023-01-02T03:57:31.783Z,99880.16
2023-01-02T04:01:45.612Z,99880.91
2023-01-02T04:05:52.701Z,99885.88
2023-01-02T04:09:54.523Z,99879.44
2023-01-02T04:14:03.109Z,99872.22
2023-01-02T04:18:10.047Z,99893.19
2023-01-02T04:22:35.861Z,99893.47
2023-01-02T04:26:51.979Z,99910.66
2023-01-02T04:31:18.210Z,99912.28
2023-01-02T04:35:22.013Z,99913.19
2023-01-02T04:39:23.765Z,99908.59
2023-01-02T04:43:25.479Z,99917.63
2023-01-02T04:47:27.208Z,99906.78
2023-01-02T04:51:28.942Z,99907.75
2023-01-02T04:55:30.693Z,99906.47
2023-01-02T04:59:32.482Z,99913.88
2023-01-02T05:03:34.188Z,99916.97
2023-01-02T05:07:37.170Z,99929.63
2023-01-02T05:11:38.908Z,99902.84
2023-01-02T05:15:40.694Z,99919.59
2023-01-02T05:19:42.482Z,99928.00
2023-01-02T05:23:49.927Z,99927.81
2023-01-02T05:27:55.148Z,99937.34
2023-01-02T05:31:56.957Z,99931.91
2023-01-02T05:35:58.785Z,99925.53
2023-01-02T05:40:00.723Z,99946.00
2023-01-02T05:44:02.660Z,99950.28
2023-01-02T05:48:05.067Z,99944.06
2023-01-02T05:52:08.328Z,99951.78
2023-01-02T05:56:16.138Z,99929.44
2023-01-02T06:00:18.320Z,99923.19
2023-01-02T06:04:20.936Z,99940.25
2023-01-02T06:08:23.190Z,99949.16
2023-01-02T06:12:26.671Z,99959.28
2023-01-02T06:16:29.350Z,99946.81
2023-01-02T06:20:31.535Z,99940.59
2023-01-02T06:24:33.391Z,99955.38
2023-01-02T06:28:35.566Z,99953.72
2023-01-02T06:32:38.830Z,99960.25
2023-01-02T06:36:41.896Z,99958.78
2023-01-02T06:40:54.530Z,99962.19
2023-01-02T06:44:57.060Z,99967.44
2023-01-02T06:48:59.447Z,99972.22
2023-01-02T06:53:01.616Z,99959.16
2023-01-02T06:57:03.625Z,99955.25
2023-01-02T07:01:11.626Z,99975.66
2023-01-02T07:05:21.141Z,99977.13
2023-01-02T07:09:29.332Z,99972.56
2023-01-02T07:13:31.234Z,99971.56
2023-01-02T07:17:33.568Z,99989.09
2023-01-02T07:21:36.600Z,99994.03
2023-01-02T07:25:44.231Z,100003.94
2023-01-02T07:29:46.432Z,100010.72
2023-01-02T07:33:48.347Z,100028.03
2023-01-02T07:37:50.158Z,100018.03
2023-01-02T07:41:51.940Z,100028.44
2023-01-02T07:45:53.828Z,100019.53
2023-01-02T07:49:55.556Z,100024.72
2023-01-02T07:53:57.593Z,100018.75
2023-01-02T07:57:59.351Z,100027.25
2023-01-02T08:02:01.169Z,100039.03
2023-01-02T08:06:11.158Z,100046.41
2023-01-02T08:10:13.025Z,100028.13
2023-01-02T08:14:18.501Z,100043.53
2023-01-02T08:18:24.925Z,100037.88
2023-01-02T08:22:26.665Z,100056.19
2023-01-02T08:26:28.461Z,100045.66
2023-01-02T08:30:30.214Z,100050.63
2023-01-02T08:34:32.012Z,100054.09
2023-01-02T08:38:33.848Z,100060.59
2023-01-02T08:42:35.600Z,100050.75
2023-01-02T08:46:42.570Z,100064.13
2023-01-02T08:50:44.912Z,100058.94
2023-01-02T08:54:46.659Z,100074.03
2023-01-02T08:58:56.048Z,100073.41
2023-01-02T09:02:57.921Z,100057.25
2023-01-02T09:06:59.837Z,100065.53
2023-01-02T09:11:11.885Z,100075.59
2023-01-02T09:15:13.722Z,100074.44
2023-01-02T09:19:15.540Z,100073.19
2023-01-02T09:23:17.343Z,100047.69
2023-01-02T09:27:19.429Z,100051.88
2023-01-02T09:31:21.956Z,100067.34
2023-01-02T09:35:23.814Z,100080.34
2023-01-02T09:39:31.924Z,100085.81
2023-01-02T09:43:39.676Z,100082.66
2023-01-02T09:47:41.402Z,100089.47
2023-01-02T09:51:44.018Z,100085.47
2023-01-02T09:55:52.052Z,100083.91
2023-01-02T10:00:18.322Z,100081.09
2023-01-02T10:04:50.860Z,100076.34
2023-01-02T10:09:31.393Z,100060.41
2023-01-02T10:18:26.067Z,100062.63
2023-01-02T10:22:43.680Z,100064.84
2023-01-02T10:26:53.437Z,100047.41
2023-01-02T10:31:06.772Z,100052.00
2023-01-02T10:35:13.001Z,100054.34
2023-01-02T10:39:22.798Z,100039.19
2023-01-02T10:43:27.148Z,100037.38
2023-01-02T10:47:39.130Z,100045.97
2023-01-02T10:51:48.433Z,100038.53
2023-01-02T10:55:50.614Z,100039.00
2023-01-02T10:59:58.741Z,100034.97
2023-01-02T11:04:09.968Z,100032.69
2023-01-02T11:08:18.398Z,100017.06
2023-01-02T11:12:27.219Z,100016.06
2023-01-02T11:21:07.776Z,100009.19
2023-01-02T11:26:02.472Z,100015.72
2023-01-02T11:30:42.424Z,100017.09
2023-01-02T11:34:48.906Z,100018.69
2023-01-02T11:38:55.131Z,100006.06
2023-01-02T11:43:18.546Z,100002.63
2023-01-02T11:47:33.493Z,100008.38
2023-01-02T11:51:44.568Z,100015.16
2023-01-02T11:56:16.212Z,100022.06
2023-01-02T12:00:40.599Z,100013.00
2023-01-02T12:04:48.932Z,100013.00
2023-01-02T12:09:28.901Z,100027.81
2023-01-02T12:14:07.841Z,100014.03
2023-01-02T12:18:52.423Z,100007.81
2023-01-02T12:23:33.161Z,100012.38
2023-01-02T12:28:01.959Z,100009.69
2023-01-02T12:33:05.159Z,99995.53
2023-01-02T12:37:47.931Z,100005.53
2023-01-02T12:42:32.285Z,100007.88
2023-01-02T12:47:17.305Z,99992.47
2023-01-02T12:51:41.111Z,99987.22
2023-01-02T12:55:54.643Z,100001.97
2023-01-02T13:00:37.276Z,100004.94
2023-01-02T13:04:44.643Z,100001.81
2023-01-02T13:09:21.767Z,99989.84
2023-01-02T13:13:31.252Z,99978.19
2023-01-02T13:17:51.484Z,99983.59
2023-01-02T13:22:21.593Z,99984.91
2023-01-02T13:26:26.210Z,99993.13
2023-01-02T13:30:34.146Z,100001.16
2023-01-02T13:34:37.547Z,100007.56
2023-01-02T13:38:39.342Z,100014.28
2023-01-02T13:42:58.993Z,100011.84
2023-01-02T13:47:25.840Z,100011.66
2023-01-02T13:51:33.988Z,100012.19
2023-01-02T13:56:01.110Z,100027.25
2023-01-02T14:00:35.422Z,100030.06
2023-01-02T14:04:37.837Z,100030.88
2023-01-02T14:08:42.318Z,100025.63
2023-01-02T14:12:54.621Z,100021.03
2023-01-02T14:17:41.346Z,100036.47
2023-01-02T14:21:48.659Z,100039.41
2023-01-02T14:25:50.493Z,100050.91
2023-01-02T14:29:57.326Z,100040.06
2023-01-02T14:33:59.080Z,100055.81
2023-01-02T14:38:31.470Z,100059.16
2023-01-02T14:42:51.607Z,100074.94
2023-01-02T14:46:53.571Z,100074.25
2023-01-02T14:50:55.450Z,100066.88
2023-01-02T14:55:21.648Z,100054.56
2023-01-02T14:59:42.733Z,100055.22
2023-01-02T15:03:57.217Z,100051.78
2023-01-02T15:07:59.091Z,100054.53
2023-01-02T15:12:21.432Z,100058.78
2023-01-02T15:16:23.841Z,100056.81
2023-01-02T15:20:30.105Z,100052.47
2023-01-02T15:24:32.033Z,100062.31
2023-01-02T15:28:34.231Z,100076.09
2023-01-02T15:32:36.592Z,100071.34
2023-01-02T15:36:40.524Z,100085.91
2023-01-02T15:40:45.103Z,100076.41
2023-01-02T15:45:05.736Z,100101.03
2023-01-02T15:49:09.965Z,100101.81
2023-01-02T15:53:34.707Z,100092.25
2023-01-02T15:57:51.025Z,100117.78
2023-01-02T16:01:52.960Z,100100.00
2023-01-02T16:05:56.204Z,100093.28
2023-01-02T16:09:58.037Z,100103.63
2023-01-02T16:14:20.249Z,100110.25
2023-01-02T16:18:22.506Z,100125.53
2023-01-02T16:22:44.508Z,100122.63
2023-01-02T16:26:49.477Z,100139.72
2023-01-02T16:31:07.894Z,100129.34
2023-01-02T16:35:32.391Z,100144.31
2023-01-02T16:39:48.165Z,100139.84
2023-01-02T16:43:52.269Z,100147.25
2023-01-02T16:47:54.169Z,100146.44
2023-01-02T16:51:55.995Z,100164.84
2023-01-02T16:56:00.890Z,100166.38
2023-01-02T17:00:03.214Z,100168.50
2023-01-02T17:04:05.346Z,100174.13
2023-01-02T17:08:07.406Z,100171.63
2023-01-02T17:12:13.347Z,100178.69
2023-01-02T17:16:15.855Z,100185.41
2023-01-02T17:20:17.978Z,100187.22
2023-01-02T17:24:20.707Z,100202.03
2023-01-02T17:28:22.607Z,100197.88
2023-01-02T17:32:24.449Z,100174.84
2023-01-02T17:36:26.347Z,100187.84
2023-01-02T17:40:28.173Z,100182.75
2023-01-02T17:44:35.491Z,100198.56
2023-01-02T17:48:37.467Z,100189.69
2023-01-02T17:52:39.417Z,100210.25
2023-01-02T17:56:43.473Z,100175.91
2023-01-02T18:00:48.583Z,100205.38
2023-01-02T18:04:55.450Z,100211.59
2023-01-02T18:08:57.581Z,100209.50
2023-01-02T18:12:59.729Z,100193.84
2023-01-02T18:17:26.872Z,100197.16
2023-01-02T18:21:34.374Z,100208.81
2023-01-02T18:25:36.185Z,100175.38
2023-01-02T18:29:40.719Z,100215.56
2023-01-02T18:33:43.507Z,100212.91
2023-01-02T18:37:45.473Z,100202.06
2023-01-02T18:41:49.944Z,100211.94
2023-01-02T18:45:54.751Z,100210.81
2023-01-02T18:50:01.416Z,100206.53
2023-01-02T18:54:06.324Z,100205.41
2023-01-02T18:58:46.409Z,100209.50
2023-01-02T19:02:54.471Z,100214.44
2023-01-02T19:07:31.047Z,100207.66
2023-01-02T19:11:52.302Z,100206.03
2023-01-02T19:16:13.183Z,100227.72
2023-01-02T19:20:18.332Z,100210.94
2023-01-02T19:24:30.121Z,100214.06
2023-01-02T19:28:49.122Z,100212.28
2023-01-02T19:32:51.084Z,100199.59
2023-01-02T19:37:13.239Z,100218.84
2023-01-02T19:41:15.925Z,100225.75
2023-01-02T19:45:26.025Z,100223.47
2023-01-02T19:49:27.967Z,100213.44
2023-01-02T19:53:29.871Z,100215.75
2023-01-02T19:57:39.648Z,100221.47
2023-01-02T20:01:41.586Z,100226.44
2023-01-02T20:05:46.184Z,100236.63
2023-01-02T20:10:03.165Z,100241.06
2023-01-02T20:14:05.106Z,100275.75
2023-01-02T20:18:08.844Z,100290.41
2023-01-02T20:22:11.278Z,100308.78
2023-01-02T20:26:13.157Z,100353.91
2023-01-02T20:30:20.311Z,100360.31
2023-01-02T20:34:25.789Z,100390.03
2023-01-02T20:38:28.066Z,100419.81
2023-01-02T20:42:30.323Z,100445.22
2023-01-02T20:46:32.155Z,100445.66
2023-01-02T20:50:33.976Z,100474.25
2023-01-02T20:54:35.869Z,100475.09
2023-01-02T20:58:37.724Z,100489.56
2023-01-02T21:02:39.669Z,100484.91
2023-01-02T21:06:42.050Z,100508.16
2023-01-02T21:10:44.012Z,100497.69
2023-01-02T21:14:46.640Z,100513.38
2023-01-02T21:18:48.617Z,100517.78
2023-01-02T21:22:50.369Z,100544.22
2023-01-02T21:26:52.262Z,100536.22
2023-01-02T21:30:54.446Z,100522.34
2023-01-02T21:34:56.208Z,100549.47
2023-01-02T21:38:57.942Z,100566.25
2023-01-02T21:42:59.821Z,100569.91
2023-01-02T21:47:03.354Z,100570.53
2023-01-02T21:51:06.539Z,100579.91
2023-01-02T21:55:08.903Z,100590.22
2023-01-02T21:59:10.710Z,100581.56
2023-01-02T22:03:12.823Z,100586.81
2023-01-02T22:07:31.664Z,100587.47
2023-01-02T22:11:52.605Z,100603.16
2023-01-02T22:15:54.819Z,100594.66
2023-01-02T22:19:56.910Z,100608.09
2023-01-02T22:23:58.918Z,100624.13
2023-01-02T22:28:01.003Z,100621.09
2023-01-02T22:32:04.071Z,100626.75
2023-01-02T22:36:06.990Z,100633.91
2023-01-02T22:40:09.703Z,100642.00
2023-01-02T22:44:19.084Z,100646.25
2023-01-02T22:48:26.930Z,100642.31
2023-01-02T22:52:29.010Z,100659.09
2023-01-02T22:56:30.753Z,100660.31
2023-01-02T23:00:32.542Z,100655.81
2023-01-02T23:04:34.473Z,100656.88
2023-01-02T23:08:36.360Z,100660.19
2023-01-02T23:12:38.144Z,100654.94
2023-01-02T23:16:58.631Z,100669.56
2023-01-02T23:21:08.396Z,100674.66
2023-01-02T23:25:10.220Z,100673.38
2023-01-02T23:29:12.320Z,100664.03
2023-01-02T23:33:14.111Z,100671.94
2023-01-02T23:37:15.858Z,100666.28
2023-01-02T23:41:17.800Z,100674.94
2023-01-02T23:45:19.791Z,100700.47
2023-01-02T23:49:23.728Z,100702.94
2023-01-02T23:53:26.149Z,100714.81
2023-01-02T23:57:27.907Z,100726.31
